Time;durP1;ratioP1;P1;durP2;ratioP2;P2;SDS_P1;SDS_P2;PMS_P1;PMS_P2;Temp;Humidity;BMP_temperature;BMP_pressure;BME280_temperature;BME280_humidity;BME280_pressure;Samples;Min_cycle;Max_cycle;Signal;HPM_P1;HPM_P2
2023/06/15 00:01:23;;;;;;;6.53;5.83;;;17.30;56.00;;;;;;6273129;28;20260;-82
2023/06/15 00:04:27;;;;;;;5.30;4.90;;;17.30;56.10;;;;;;6283214;28;20230;-83
2023/06/15 00:07:30;;;;;;;5.80;4.47;;;17.40;56.10;;;;;;6280893;28;20251;-81
2023/06/15 00:10:34;;;;;;;4.97;4.67;;;17.30;56.30;;;;;;6276615;28;20238;-81
2023/06/15 00:13:37;;;;;;;5.43;5.03;;;17.20;56.20;;;;;;6280743;28;20252;-81
2023/06/15 00:16:41;;;;;;;5.27;4.77;;;17.20;56.50;;;;;;6278046;28;20398;-84
2023/06/15 00:19:46;;;;;;;6.27;5.13;;;17.20;56.50;;;;;;6275833;28;20850;-80
2023/06/15 00:22:51;;;;;;;4.63;4.33;;;17.20;56.40;;;;;;6279646;28;20226;-81
2023/06/15 00:25:56;;;;;;;4.80;4.60;;;17.20;56.60;;;;;;6272786;28;20270;-82
2023/06/15 00:29:17;;;;;;;4.90;4.60;;;17.20;56.60;;;;;;6265834;28;20241;-81
2023/06/15 00:32:20;;;;;;;7.30;5.07;;;17.10;56.80;;;;;;6273166;28;20331;-82
2023/06/15 00:35:25;;;;;;;5.57;5.20;;;17.00;57.00;;;;;;6273820;28;20226;-82
2023/06/15 00:38:28;;;;;;;8.23;5.27;;;17.00;57.10;;;;;;6270153;28;20248;-81
2023/06/15 00:41:40;;;;;;;6.13;4.80;;;17.00;57.20;;;;;;6276225;28;20457;-82
2023/06/15 00:44:43;;;;;;;7.97;4.80;;;17.00;57.20;;;;;;6284665;28;20640;-78
2023/06/15 00:47:47;;;;;;;5.30;4.90;;;16.90;57.40;;;;;;6271955;28;20233;-81
2023/06/15 00:50:52;;;;;;;6.03;4.87;;;16.90;57.60;;;;;;6281502;28;20236;-81
2023/06/15 00:53:56;;;;;;;5.10;4.70;;;16.90;57.50;;;;;;6265955;28;20238;-80
2023/06/15 00:56:59;;;;;;;4.87;4.53;;;16.80;57.70;;;;;;6274144;28;20655;-80
2023/06/15 01:00:09;;;;;;;6.93;5.30;;;16.80;57.80;;;;;;6288542;28;20230;-80
2023/06/15 01:03:12;;;;;;;6.27;4.77;;;16.70;58.10;;;;;;6267940;28;20237;-82
2023/06/15 01:06:19;;;;;;;5.07;4.67;;;16.60;58.10;;;;;;6276298;28;20238;-81
2023/06/15 01:09:23;;;;;;;5.13;4.50;;;16.60;58.30;;;;;;6273866;28;20920;-81
2023/06/15 01:12:28;;;;;;;5.73;5.23;;;16.50;58.40;;;;;;6273927;28;20709;-81
2023/06/15 01:15:32;;;;;;;4.93;4.53;;;16.50;58.50;;;;;;6281026;28;20250;-80
2023/06/15 01:18:41;;;;;;;5.17;4.97;;;16.40;58.60;;;;;;6268636;28;20292;-82
2023/06/15 01:21:46;;;;;;;5.40;5.17;;;16.40;58.90;;;;;;6288096;28;20237;-82
2023/06/15 01:24:59;;;;;;;6.13;5.20;;;16.20;59.00;;;;;;6284120;28;20261;-80
2023/06/15 01:28:06;;;;;;;4.93;4.63;;;16.20;59.10;;;;;;6280220;28;20302;-82
2023/06/15 01:31:10;;;;;;;5.27;4.90;;;16.10;59.30;;;;;;6261530;28;20322;-83
2023/06/15 01:34:13;;;;;;;5.37;4.97;;;16.10;59.50;;;;;;6272821;28;20641;-82
2023/06/15 01:37:16;;;;;;;5.93;4.93;;;16.00;59.60;;;;;;6263773;28;20234;-83
2023/06/15 01:40:20;;;;;;;5.60;5.20;;;16.00;59.60;;;;;;6273403;28;20322;-81
2023/06/15 01:43:27;;;;;;;5.40;5.03;;;16.00;59.70;;;;;;6288060;28;20244;-82
2023/06/15 01:46:32;;;;;;;4.97;4.77;;;16.00;59.70;;;;;;6269679;28;20275;-82
2023/06/15 01:49:36;;;;;;;6.03;5.27;;;15.90;59.80;;;;;;6264988;28;20933;-84
2023/06/15 01:52:39;;;;;;;5.03;4.57;;;15.80;59.80;;;;;;6269297;28;20246;-81
2023/06/15 01:55:42;;;;;;;5.30;4.80;;;15.80;60.00;;;;;;6274574;28;20308;-81
2023/06/15 01:58:46;;;;;;;8.20;5.40;;;15.70;60.10;;;;;;6286424;28;20257;-81
2023/06/15 02:01:50;;;;;;;5.77;5.20;;;15.60;60.20;;;;;;6274379;28;20246;-80
2023/06/15 02:04:53;;;;;;;5.10;4.80;;;15.60;60.50;;;;;;6277012;28;20244;-84
2023/06/15 02:07:56;;;;;;;7.73;5.70;;;15.50;60.90;;;;;;6267736;28;20249;-82
2023/06/15 02:10:59;;;;;;;6.47;4.87;;;15.40;60.70;;;;;;6272403;28;20306;-81
2023/06/15 02:14:05;;;;;;;4.70;4.30;;;15.40;60.80;;;;;;6257986;28;20321;-80
2023/06/15 02:17:09;;;;;;;5.23;4.80;;;15.40;60.80;;;;;;6277797;28;20245;-83
2023/06/15 02:20:13;;;;;;;6.67;4.93;;;15.30;61.00;;;;;;6288455;28;20323;-80
2023/06/15 02:23:17;;;;;;;5.13;4.73;;;15.20;61.30;;;;;;6272068;28;20237;-82
2023/06/15 02:26:20;;;;;;;5.50;5.10;;;15.20;61.40;;;;;;6269444;28;20756;-80
2023/06/15 02:29:25;;;;;;;6.07;4.73;;;15.20;61.40;;;;;;6287384;28;20318;-81
2023/06/15 02:32:34;;;;;;;5.33;5.03;;;15.20;61.50;;;;;;6278376;28;20244;-82
2023/06/15 02:35:37;;;;;;;5.60;5.20;;;15.20;61.40;;;;;;6280915;28;20230;-80
2023/06/15 02:38:40;;;;;;;4.50;4.37;;;15.20;61.40;;;;;;6266507;28;20245;-79
2023/06/15 02:41:43;;;;;;;5.37;5.03;;;15.20;61.50;;;;;;6274522;28;20269;-79
2023/06/15 02:44:48;;;;;;;5.73;5.33;;;15.10;61.70;;;;;;6269257;28;20796;-80
2023/06/15 02:47:51;;;;;;;4.90;4.70;;;15.00;61.90;;;;;;6286367;28;20295;-83
2023/06/15 02:50:54;;;;;;;5.40;4.90;;;15.00;61.90;;;;;;6275183;28;20723;-83
2023/06/15 02:53:57;;;;;;;6.97;5.80;;;15.10;61.90;;;;;;6274499;28;20242;-82
2023/06/15 02:57:01;;;;;;;5.70;5.10;;;15.10;62.00;;;;;;6279704;28;20237;-83
2023/06/15 03:00:09;;;;;;;6.17;5.40;;;15.10;62.00;;;;;;6268179;28;20241;-82
2023/06/15 03:03:12;;;;;;;5.93;5.40;;;15.20;61.80;;;;;;6268685;28;20258;-81
2023/06/15 03:06:15;;;;;;;6.30;5.10;;;15.10;61.90;;;;;;6266918;28;20240;-80
2023/06/15 03:09:19;;;;;;;5.27;4.97;;;15.20;61.90;;;;;;6272346;28;20248;-78
2023/06/15 03:12:22;;;;;;;5.63;5.13;;;15.10;61.90;;;;;;6269215;28;20310;-82
2023/06/15 03:15:26;;;;;;;5.27;4.87;;;15.10;62.00;;;;;;6280706;28;20715;-78
2023/06/15 03:18:29;;;;;;;5.33;4.97;;;15.20;62.10;;;;;;6280141;28;20242;-83
2023/06/15 03:21:32;;;;;;;5.20;4.90;;;15.10;62.20;;;;;;6286650;28;20330;-79
2023/06/15 03:24:36;;;;;;;5.53;4.60;;;15.20;62.20;;;;;;6262862;28;20277;-82
2023/06/15 03:27:42;;;;;;;5.30;4.80;;;15.10;62.20;;;;;;6271930;28;20262;-79
2023/06/15 03:30:52;;;;;;;5.73;5.10;;;15.10;62.40;;;;;;6270851;28;20245;-84
2023/06/15 03:33:55;;;;;;;5.33;4.97;;;15.20;62.40;;;;;;6259056;28;20237;-83
2023/06/15 03:36:59;;;;;;;4.97;4.67;;;15.20;62.40;;;;;;6279058;28;20310;-82
2023/06/15 03:40:04;;;;;;;4.70;4.47;;;15.20;62.50;;;;;;6270120;28;20237;-82
2023/06/15 03:43:07;;;;;;;5.13;4.83;;;15.20;62.50;;;;;;6258950;28;20246;-84
2023/06/15 03:46:11;;;;;;;5.80;5.30;;;15.20;62.50;;;;;;6270700;28;20237;-82
2023/06/15 03:49:15;;;;;;;5.37;4.87;;;15.10;62.80;;;;;;6257542;28;20241;-85
2023/06/15 03:52:18;;;;;;;5.63;5.00;;;15.00;63.00;;;;;;6262841;28;20238;-85
2023/06/15 03:55:21;;;;;;;6.00;5.17;;;15.00;63.30;;;;;;6264060;28;20230;-82
2023/06/15 03:58:24;;;;;;;5.13;4.93;;;15.00;63.20;;;;;;6271136;28;20891;-83
2023/06/15 04:01:29;;;;;;;5.90;5.33;;;15.00;63.40;;;;;;6262118;28;20725;-82
2023/06/15 04:04:33;;;;;;;5.20;4.90;;;15.10;63.30;;;;;;6262562;28;20246;-84
2023/06/15 04:07:40;;;;;;;5.40;5.17;;;15.20;63.40;;;;;;6282207;28;20266;-85
2023/06/15 04:10:43;;;;;;;5.83;5.27;;;15.20;63.40;;;;;;6264495;28;20234;-84
2023/06/15 04:13:46;;;;;;;5.33;4.70;;;15.20;63.40;;;;;;6257697;28;20338;-81
2023/06/15 04:16:52;;;;;;;6.00;5.40;;;15.20;63.40;;;;;;6269782;28;20280;-80
2023/06/15 04:19:55;;;;;;;4.83;4.53;;;15.30;63.50;;;;;;6273394;28;20321;-81
2023/06/15 04:22:58;;;;;;;5.73;4.90;;;15.40;63.40;;;;;;6254678;28;20266;-81
2023/06/15 04:26:03;;;;;;;5.23;4.87;;;15.40;63.20;;;;;;6272355;28;20233;-84
2023/06/15 04:29:06;;;;;;;4.73;4.53;;;15.50;63.20;;;;;;6280430;28;20365;-83
2023/06/15 04:32:12;;;;;;;5.43;5.00;;;15.60;63.10;;;;;;6269940;28;20255;-83
2023/06/15 04:35:17;;;;;;;5.70;5.10;;;15.60;63.00;;;;;;6265148;28;20253;-83
2023/06/15 04:38:21;;;;;;;5.47;5.07;;;15.60;62.90;;;;;;6268806;28;20771;-84
2023/06/15 04:41:29;;;;;;;5.50;5.03;;;15.80;63.00;;;;;;6292611;28;20297;-84
2023/06/15 04:44:32;;;;;;;5.57;5.20;;;15.80;63.00;;;;;;6275346;28;20233;-82
2023/06/15 04:47:42;;;;;;;5.97;5.27;;;15.80;62.90;;;;;;6259228;28;20321;-81
2023/06/15 04:50:48;;;;;;;6.07;5.20;;;15.90;62.50;;;;;;6279442;28;20313;-79
2023/06/15 04:53:51;;;;;;;5.10;4.90;;;16.00;62.40;;;;;;6275641;28;20246;-79
2023/06/15 04:56:54;;;;;;;5.20;4.90;;;16.10;62.70;;;;;;6278001;28;20244;-82
2023/06/15 04:59:57;;;;;;;5.50;4.97;;;16.40;62.20;;;;;;6279436;28;20281;-83
2023/06/15 05:03:02;;;;;;;4.93;4.73;;;16.60;61.20;;;;;;6273111;28;20284;-81
2023/06/15 05:06:05;;;;;;;5.17;4.77;;;16.90;61.00;;;;;;6265481;28;20736;-82
2023/06/15 05:09:09;;;;;;;4.67;4.40;;;17.10;60.60;;;;;;6276798;28;20317;-81
2023/06/15 05:12:12;;;;;;;5.33;4.87;;;17.40;60.20;;;;;;6266327;28;20320;-82
2023/06/15 05:15:15;;;;;;;5.27;4.73;;;17.50;59.60;;;;;;6275903;28;20226;-81
2023/06/15 05:18:20;;;;;;;4.87;4.40;;;17.80;59.10;;;;;;6269430;28;20237;-79
2023/06/15 05:21:23;;;;;;;5.57;5.10;;;17.90;58.60;;;;;;6261937;28;20315;-82
2023/06/15 05:24:27;;;;;;;4.57;4.27;;;17.80;58.70;;;;;;6277525;28;20230;-82
2023/06/15 05:27:31;;;;;;;4.87;4.57;;;17.70;59.00;;;;;;6275345;28;20237;-82
2023/06/15 05:30:35;;;;;;;6.00;4.50;;;17.60;59.20;;;;;;6269683;28;20242;-88
2023/06/15 05:33:43;;;;;;;5.17;4.77;;;17.80;58.80;;;;;;6279036;28;20780;-89
2023/06/15 05:36:46;;;;;;;9.27;3.93;;;17.90;58.70;;;;;;6266002;28;20368;-86
2023/06/15 05:39:59;;;;;;;5.23;4.83;;;18.00;59.00;;;;;;6273737;28;20240;-81
2023/06/15 05:43:03;;;;;;;4.77;4.53;;;17.90;58.70;;;;;;6270683;28;20261;-80
2023/06/15 05:46:06;;;;;;;4.80;4.50;;;18.00;58.70;;;;;;6288074;28;20229;-80
2023/06/15 05:49:16;;;;;;;5.40;5.00;;;18.30;58.40;;;;;;6251856;28;20233;-80
2023/06/15 05:52:21;;;;;;;4.97;4.47;;;18.60;57.90;;;;;;6270018;28;20820;-83
2023/06/15 05:55:26;;;;;;;4.60;4.40;;;18.80;57.20;;;;;;6263493;28;20268;-82
2023/06/15 05:58:32;;;;;;;4.63;4.03;;;19.00;57.20;;;;;;6268618;28;20258;-81
2023/06/15 06:01:36;;;;;;;4.80;4.43;;;19.10;56.90;;;;;;6267776;28;20644;-80
2023/06/15 06:04:41;;;;;;;5.00;4.70;;;19.20;56.90;;;;;;6260957;28;20843;-83
2023/06/15 06:07:46;;;;;;;5.00;4.63;;;19.20;56.40;;;;;;6260983;28;20277;-81
2023/06/15 06:10:49;;;;;;;5.27;4.90;;;19.30;56.40;;;;;;6272857;28;20238;-80
2023/06/15 06:14:02;;;;;;;5.20;4.80;;;18.90;57.00;;;;;;6254714;28;20291;-81
2023/06/15 06:17:05;;;;;;;4.70;4.47;;;18.80;56.90;;;;;;6257856;28;20244;-81
2023/06/15 06:20:12;;;;;;;5.10;4.80;;;18.70;57.30;;;;;;6273028;28;20229;-81
2023/06/15 06:23:15;;;;;;;5.83;5.07;;;18.70;57.10;;;;;;6264043;28;20607;-81
2023/06/15 06:26:18;;;;;;;6.90;4.80;;;18.70;57.10;;;;;;6267351;28;20226;-77
2023/06/15 06:29:23;;;;;;;5.30;4.90;;;18.60;57.40;;;;;;6259178;28;20237;-81
2023/06/15 06:32:26;;;;;;;4.80;4.57;;;18.50;57.30;;;;;;6289783;28;20242;-82
2023/06/15 06:35:31;;;;;;;5.40;5.07;;;18.40;57.80;;;;;;6270788;28;20238;-81
2023/06/15 06:38:34;;;;;;;6.80;4.73;;;18.40;57.60;;;;;;6275365;28;20793;-81
2023/06/15 06:41:46;;;;;;;6.63;5.30;;;18.40;58.00;;;;;;6272965;28;20238;-79
2023/06/15 06:44:50;;;;;;;5.27;4.87;;;18.60;57.60;;;;;;6270907;28;20742;-80
2023/06/15 06:47:56;;;;;;;5.17;4.87;;;18.70;57.50;;;;;;6290913;28;20801;-77
2023/06/15 06:51:01;;;;;;;8.93;4.87;;;19.00;57.40;;;;;;6304976;28;20225;-76
2023/06/15 06:54:04;;;;;;;5.10;4.70;;;19.50;56.50;;;;;;6305600;28;20222;-79
2023/06/15 06:57:07;;;;;;;4.80;4.33;;;19.70;56.50;;;;;;6310270;28;20237;-77
2023/06/15 07:00:11;;;;;;;4.97;4.67;;;20.30;55.50;;;;;;6296896;28;20230;-79
2023/06/15 07:03:15;;;;;;;4.70;4.40;;;20.90;54.60;;;;;;6294616;28;20217;-78
2023/06/15 07:06:19;;;;;;;4.60;4.40;;;21.40;52.80;;;;;;6310094;28;20212;-76
2023/06/15 07:09:22;;;;;;;5.07;4.83;;;21.90;52.80;;;;;;6309321;28;20228;-79
2023/06/15 07:12:26;;;;;;;4.43;4.13;;;22.10;52.20;;;;;;6294832;28;20235;-78
2023/06/15 07:15:31;;;;;;;5.40;4.97;;;22.50;51.50;;;;;;6295729;28;20304;-78
2023/06/15 07:18:34;;;;;;;7.27;4.40;;;22.50;51.20;;;;;;6296901;28;20222;-75
2023/06/15 07:21:39;;;;;;;6.33;4.53;;;22.60;50.90;;;;;;6289719;28;20417;-78
2023/06/15 07:24:42;;;;;;;4.87;4.43;;;22.60;51.40;;;;;;6304171;28;20509;-80
2023/06/15 07:27:45;;;;;;;6.33;4.50;;;22.50;50.80;;;;;;6301283;28;20401;-77
2023/06/15 07:30:49;;;;;;;5.27;5.00;;;22.30;51.20;;;;;;6288494;28;20237;-81
2023/06/15 07:33:54;;;;;;;6.63;4.83;;;22.10;51.10;;;;;;6262345;28;20233;-82
2023/06/15 07:36:59;;;;;;;5.03;4.63;;;22.00;51.40;;;;;;6275443;28;20255;-83
2023/06/15 07:40:02;;;;;;;5.10;4.80;;;22.00;51.60;;;;;;6282518;28;20339;-82
2023/06/15 07:43:08;;;;;;;5.80;5.30;;;21.80;51.60;;;;;;6283310;28;20237;-80
2023/06/15 07:46:11;;;;;;;8.83;4.63;;;21.50;52.40;;;;;;6257878;28;20234;-83
2023/06/15 07:49:14;;;;;;;5.70;5.03;;;21.10;52.80;;;;;;6274484;28;20234;-82
2023/06/15 07:52:19;;;;;;;6.63;5.00;;;20.90;53.30;;;;;;6270792;28;20237;-82
2023/06/15 07:55:22;;;;;;;4.73;4.40;;;20.70;53.80;;;;;;6271933;28;20713;-79
2023/06/15 07:58:25;;;;;;;5.57;5.10;;;20.70;54.00;;;;;;6269360;28;20230;-81
2023/06/15 08:01:28;;;;;;;6.50;5.00;;;20.80;54.20;;;;;;6273741;28;20241;-82
2023/06/15 08:04:31;;;;;;;6.47;5.13;;;20.80;53.90;;;;;;6278755;28;20234;-79
2023/06/15 08:07:36;;;;;;;4.67;4.27;;;20.80;54.00;;;;;;6283465;28;20253;-79
2023/06/15 08:10:39;;;;;;;6.43;5.30;;;20.90;54.00;;;;;;6302615;28;20241;-81
2023/06/15 08:13:44;;;;;;;5.50;5.10;;;21.00;54.00;;;;;;6276246;28;20442;-81
2023/06/15 08:16:49;;;;;;;8.53;4.97;;;21.00;53.70;;;;;;6282188;28;20242;-79
2023/06/15 08:19:54;;;;;;;5.97;5.37;;;20.90;54.10;;;;;;6272092;28;20391;-83
2023/06/15 08:22:59;;;;;;;5.47;4.97;;;21.00;54.20;;;;;;6275361;28;20421;-80
2023/06/15 08:26:02;;;;;;;5.80;5.30;;;21.00;54.10;;;;;;6280199;28;20268;-82
2023/06/15 08:29:06;;;;;;;7.37;5.03;;;21.00;54.20;;;;;;6277194;28;20313;-81
2023/06/15 08:32:15;;;;;;;5.60;5.00;;;21.00;54.30;;;;;;6270545;28;20241;-81
2023/06/15 08:35:19;;;;;;;8.00;5.70;;;20.90;54.30;;;;;;6272274;28;20327;-80
2023/06/15 08:38:23;;;;;;;6.00;5.53;;;21.10;54.70;;;;;;6294169;28;20314;-80
2023/06/15 08:41:27;;;;;;;6.47;5.83;;;21.20;53.80;;;;;;6268714;28;20876;-79
2023/06/15 08:44:31;;;;;;;5.60;5.00;;;21.40;54.10;;;;;;6287010;28;20230;-85
2023/06/15 08:47:35;;;;;;;5.93;5.40;;;21.60;53.70;;;;;;6271341;28;20371;-79
2023/06/15 08:50:39;;;;;;;5.27;4.93;;;21.90;53.50;;;;;;6286062;28;20237;-81
2023/06/15 08:53:47;;;;;;;6.07;5.67;;;22.20;53.10;;;;;;6280975;28;20732;-82
2023/06/15 08:56:50;;;;;;;5.37;5.00;;;22.50;52.80;;;;;;6272976;28;20238;-81
2023/06/15 08:59:55;;;;;;;5.77;5.30;;;22.80;50.70;;;;;;6272627;28;20233;-80
2023/06/15 09:03:01;;;;;;;7.10;5.13;;;22.90;50.80;;;;;;6275662;28;20297;-83
2023/06/15 09:06:05;;;;;;;5.23;4.93;;;23.20;50.90;;;;;;6296738;28;20238;-78
2023/06/15 09:09:10;;;;;;;5.57;5.07;;;23.60;49.60;;;;;;6306941;28;20256;-77
2023/06/15 09:12:19;;;;;;;6.43;5.87;;;24.00;48.70;;;;;;6297310;28;20226;-76
2023/06/15 09:15:24;;;;;;;6.37;5.87;;;24.20;48.20;;;;;;6312550;28;20293;-76
2023/06/15 09:18:27;;;;;;;5.50;5.20;;;24.50;48.10;;;;;;6306679;28;20278;-77
2023/06/15 09:21:31;;;;;;;8.50;5.70;;;24.90;48.00;;;;;;6298023;28;20233;-80
2023/06/15 09:24:39;;;;;;;6.43;5.90;;;25.40;48.00;;;;;;6300677;28;20733;-79
2023/06/15 09:27:43;;;;;;;8.30;6.03;;;25.80;46.80;;;;;;6299175;28;20226;-78
2023/06/15 09:30:53;;;;;;;6.33;5.70;;;25.80;46.60;;;;;;6303600;28;20251;-78
2023/06/15 09:34:04;;;;;;;6.10;5.50;;;25.60;47.00;;;;;;6296224;28;20261;-76
2023/06/15 09:37:16;;;;;;;6.67;6.07;;;25.30;47.20;;;;;;6312078;28;20237;-77
2023/06/15 09:40:21;;;;;;;5.87;5.27;;;25.10;46.70;;;;;;6319402;28;20292;-75
2023/06/15 09:43:24;;;;;;;6.50;6.10;;;25.00;46.70;;;;;;6307619;28;20218;-78
2023/06/15 09:46:29;;;;;;;11.60;5.40;;;24.90;47.30;;;;;;6297264;28;20257;-78
2023/06/15 09:49:32;;;;;;;6.93;5.90;;;24.50;46.50;;;;;;6296008;28;20226;-78
2023/06/15 09:52:41;;;;;;;8.03;5.60;;;24.30;46.80;;;;;;6300466;28;20233;-77
2023/06/15 09:55:47;;;;;;;5.90;5.50;;;24.00;46.60;;;;;;6298324;28;20267;-77
2023/06/15 09:58:50;;;;;;;6.20;4.83;;;23.80;46.80;;;;;;6292931;28;20250;-79
2023/06/15 10:02:00;;;;;;;5.53;5.13;;;23.80;47.00;;;;;;6300029;28;20350;-77
2023/06/15 10:05:08;;;;;;;6.13;5.53;;;23.80;46.60;;;;;;6296654;28;20222;-78
2023/06/15 10:08:12;;;;;;;6.00;5.60;;;23.60;47.10;;;;;;6286112;28;20244;-81
2023/06/15 10:11:17;;;;;;;6.10;5.50;;;23.70;47.60;;;;;;6278852;28;20268;-81
2023/06/15 10:14:28;;;;;;;6.40;5.30;;;23.80;48.20;;;;;;6273738;28;20233;-82
2023/06/15 10:17:35;;;;;;;6.10;5.60;;;23.80;48.30;;;;;;6270989;28;20401;-80
2023/06/15 10:20:39;;;;;;;7.03;6.30;;;23.50;48.70;;;;;;6272972;28;20341;-79
2023/06/15 10:23:44;;;;;;;7.07;5.43;;;23.30;49.30;;;;;;6268559;28;20249;-81
2023/06/15 10:26:48;;;;;;;6.03;5.50;;;23.30;49.60;;;;;;6280189;28;20234;-77
2023/06/15 10:30:01;;;;;;;6.03;5.43;;;23.40;49.80;;;;;;6276784;28;20265;-80
2023/06/15 10:33:13;;;;;;;5.87;5.27;;;23.30;48.40;;;;;;6263597;28;20230;-83
2023/06/15 10:36:21;;;;;;;5.97;5.40;;;23.20;48.90;;;;;;6278348;28;20482;-83
2023/06/15 10:39:30;;;;;;;6.67;5.90;;;23.10;48.90;;;;;;6272440;28;20767;-80
2023/06/15 10:42:45;;;;;;;5.20;4.90;;;23.00;48.90;;;;;;6293084;28;20229;-84
2023/06/15 10:45:48;;;;;;;5.40;4.93;;;22.80;48.70;;;;;;6277509;28;20249;-81
2023/06/15 10:48:54;;;;;;;5.73;5.13;;;22.80;48.70;;;;;;6272179;28;20303;-82
2023/06/15 10:51:57;;;;;;;4.87;4.30;;;22.80;48.50;;;;;;6280466;28;20241;-80
2023/06/15 10:55:09;;;;;;;4.90;4.60;;;22.70;47.00;;;;;;6267948;28;20401;-81
2023/06/15 10:58:17;;;;;;;5.40;4.73;;;22.60;47.50;;;;;;6269026;28;20826;-82
2023/06/15 11:01:22;;;;;;;6.30;4.60;;;22.60;48.20;;;;;;6270352;28;20268;-81
2023/06/15 11:04:31;;;;;;;4.33;3.83;;;22.50;47.70;;;;;;6267358;28;20229;-83
2023/06/15 11:07:36;;;;;;;4.40;4.20;;;22.50;47.60;;;;;;6274895;28;20911;-82
2023/06/15 11:10:39;;;;;;;5.13;4.70;;;22.40;47.60;;;;;;6271403;28;20237;-80
2023/06/15 11:13:59;;;;;;;5.13;4.37;;;22.30;48.10;;;;;;6275021;28;20242;-81
2023/06/15 11:17:04;;;;;;;4.97;4.67;;;22.20;48.60;;;;;;6272807;28;20234;-81
2023/06/15 11:20:29;;;;;;;4.97;4.50;;;22.20;48.30;;;;;;6273501;28;20332;-81
2023/06/15 11:23:35;;;;;;;5.23;4.80;;;22.20;47.90;;;;;;6271148;28;20242;-81
2023/06/15 11:26:40;;;;;;;9.00;4.43;;;22.20;48.50;;;;;;6269768;28;20234;-79
2023/06/15 11:29:44;;;;;;;4.87;4.33;;;22.30;47.90;;;;;;6273232;28;20237;-83
2023/06/15 11:32:47;;;;;;;5.70;4.37;;;22.30;47.20;;;;;;6268928;28;20252;-81
2023/06/15 11:35:50;;;;;;;6.27;5.33;;;22.30;46.90;;;;;;6279265;28;20732;-81
2023/06/15 11:38:55;;;;;;;7.57;4.57;;;22.50;46.80;;;;;;6269853;28;20276;-81
2023/06/15 11:42:00;;;;;;;4.40;4.20;;;22.60;46.70;;;;;;6273397;28;20321;-83
2023/06/15 11:45:04;;;;;;;4.40;4.10;;;22.80;46.90;;;;;;6270482;28;20764;-81
2023/06/15 11:48:14;;;;;;;4.87;4.20;;;23.00;46.60;;;;;;6268447;28;20241;-82
2023/06/15 11:51:19;;;;;;;5.07;4.60;;;23.10;46.60;;;;;;6272763;28;20377;-81
2023/06/15 11:54:28;;;;;;;4.50;4.30;;;23.00;46.20;;;;;;6277375;28;20766;-85
2023/06/15 11:57:51;;;;;;;5.17;4.67;;;22.90;46.40;;;;;;6282625;28;20244;-82
2023/06/15 12:00:55;;;;;;;4.97;4.40;;;22.80;46.30;;;;;;6266300;28;20230;-81
2023/06/15 12:03:58;;;;;;;5.60;5.20;;;22.80;46.60;;;;;;6277543;28;20629;-82
2023/06/15 12:07:08;;;;;;;5.33;4.77;;;22.60;47.20;;;;;;6274357;28;20730;-82
2023/06/15 12:10:21;;;;;;;5.20;4.77;;;22.50;48.00;;;;;;6269260;28;20234;-79
2023/06/15 12:13:25;;;;;;;5.07;4.67;;;22.40;48.00;;;;;;6270782;28;20826;-81
2023/06/15 12:16:30;;;;;;;5.10;4.60;;;22.50;47.90;;;;;;6270204;28;20230;-82
2023/06/15 12:19:33;;;;;;;4.80;4.60;;;22.80;47.70;;;;;;6267180;28;20234;-82
2023/06/15 12:22:37;;;;;;;4.93;4.53;;;23.20;47.30;;;;;;6281006;28;20241;-82
2023/06/15 12:25:48;;;;;;;6.27;5.00;;;23.60;47.00;;;;;;6274612;28;20237;-82
2023/06/15 12:28:51;;;;;;;6.73;4.50;;;24.20;45.90;;;;;;6271980;28;20233;-83
2023/06/15 12:31:56;;;;;;;5.30;4.80;;;24.50;45.10;;;;;;6281349;28;20233;-82
2023/06/15 12:34:59;;;;;;;5.87;4.80;;;24.50;45.20;;;;;;6284049;28;20244;-81
2023/06/15 12:38:02;;;;;;;5.07;4.67;;;24.30;45.30;;;;;;6292059;28;20237;-80
2023/06/15 12:41:12;;;;;;;5.17;4.77;;;24.00;45.50;;;;;;6278696;28;20234;-79
2023/06/15 12:44:16;;;;;;;4.40;4.00;;;23.80;45.90;;;;;;6281540;28;20238;-79
2023/06/15 12:47:19;;;;;;;4.93;4.53;;;23.60;45.70;;;;;;6282218;28;20778;-78
2023/06/15 12:50:22;;;;;;;4.37;4.07;;;23.50;46.00;;;;;;6291088;28;20234;-78
2023/06/15 12:53:25;;;;;;;3.90;3.70;;;23.40;45.90;;;;;;6295060;28;20230;-79
2023/06/15 12:56:30;;;;;;;4.90;4.20;;;23.20;45.50;;;;;;6287938;28;20242;-80
2023/06/15 12:59:33;;;;;;;4.93;4.50;;;23.20;45.50;;;;;;6277691;28;20306;-81
2023/06/15 13:02:37;;;;;;;4.07;3.80;;;23.10;45.90;;;;;;6268431;28;20241;-82
2023/06/15 13:05:42;;;;;;;4.30;4.00;;;23.10;46.20;;;;;;6270224;28;20246;-81
2023/06/15 13:08:45;;;;;;;4.47;4.20;;;23.10;46.90;;;;;;6261770;28;20261;-82
2023/06/15 13:11:50;;;;;;;4.90;4.40;;;23.00;46.60;;;;;;6275514;28;20241;-81
2023/06/15 13:14:53;;;;;;;4.53;4.20;;;22.90;46.70;;;;;;6280342;28;20314;-82
2023/06/15 13:17:57;;;;;;;4.30;4.10;;;22.90;47.30;;;;;;6268715;28;20264;-81
2023/06/15 13:21:00;;;;;;;5.00;4.57;;;22.90;47.40;;;;;;6276150;28;20238;-80
2023/06/15 13:24:04;;;;;;;4.47;4.17;;;22.90;47.20;;;;;;6266553;28;20312;-83
2023/06/15 13:27:12;;;;;;;4.80;4.50;;;23.10;47.40;;;;;;6274558;28;20230;-83
2023/06/15 13:30:16;;;;;;;4.53;4.20;;;23.30;46.90;;;;;;6266994;28;20682;-80
2023/06/15 13:33:21;;;;;;;5.33;5.03;;;23.50;46.70;;;;;;6270746;28;20238;-81
2023/06/15 13:36:24;;;;;;;5.30;4.73;;;23.80;46.90;;;;;;6259551;28;20248;-80
2023/06/15 13:39:27;;;;;;;5.87;4.90;;;23.90;46.80;;;;;;6279805;28;20264;-80
2023/06/15 13:42:34;;;;;;;5.93;4.73;;;24.10;46.70;;;;;;6264690;28;20249;-81
2023/06/15 13:45:38;;;;;;;4.47;4.17;;;24.30;46.50;;;;;;6261718;28;20236;-80
2023/06/15 13:48:41;;;;;;;5.00;4.67;;;24.40;46.40;;;;;;6258800;28;20237;-83
2023/06/15 13:51:44;;;;;;;4.93;4.53;;;24.40;45.50;;;;;;6259990;28;20276;-82
2023/06/15 13:54:47;;;;;;;4.63;4.20;;;24.40;45.70;;;;;;6273708;28;20230;-80
2023/06/15 13:57:52;;;;;;;4.97;4.50;;;24.40;46.10;;;;;;6266959;28;20278;-79
2023/06/15 14:00:56;;;;;;;5.13;4.60;;;24.40;45.40;;;;;;6265107;28;20245;-81
2023/06/15 14:03:59;;;;;;;5.47;4.63;;;24.50;45.50;;;;;;6266695;28;20236;-80
2023/06/15 14:07:03;;;;;;;4.90;4.53;;;24.50;45.40;;;;;;6268016;28;20324;-79
2023/06/15 14:10:07;;;;;;;4.60;4.40;;;24.80;44.30;;;;;;6268913;28;20638;-83
2023/06/15 14:13:11;;;;;;;5.03;4.63;;;25.00;44.30;;;;;;6269343;28;20238;-84
2023/06/15 14:16:15;;;;;;;4.77;4.33;;;25.20;44.00;;;;;;6277249;28;20245;-82
2023/06/15 14:19:18;;;;;;;5.70;4.40;;;25.30;44.00;;;;;;6266630;28;20230;-79
2023/06/15 14:22:21;;;;;;;4.97;4.67;;;25.20;44.30;;;;;;6270827;28;20305;-81
2023/06/15 14:25:24;;;;;;;4.63;4.23;;;24.70;46.20;;;;;;6269676;28;20302;-80
2023/06/15 14:28:29;;;;;;;6.83;4.40;;;24.20;47.20;;;;;;6269064;28;20241;-83
2023/06/15 14:31:32;;;;;;;10.27;4.27;;;23.80;48.10;;;;;;6275379;28;20238;-80
2023/06/15 14:34:35;;;;;;;6.00;3.87;;;23.20;50.10;;;;;;6272351;28;20233;-81
2023/06/15 14:37:38;;;;;;;5.47;3.67;;;22.50;51.40;;;;;;6260825;28;20238;-83
2023/06/15 14:40:41;;;;;;;6.40;4.10;;;22.10;52.40;;;;;;6265254;28;20241;-84
2023/06/15 14:43:46;;;;;;;6.60;4.80;;;21.70;52.80;;;;;;6273396;28;20770;-80
2023/06/15 14:46:49;;;;;;;6.30;4.50;;;21.50;53.50;;;;;;6260332;28;20239;-80
2023/06/15 14:49:52;;;;;;;4.20;4.00;;;21.40;53.40;;;;;;6276217;28;20234;-82
2023/06/15 14:52:55;;;;;;;6.17;5.80;;;21.50;53.30;;;;;;6268421;28;20313;-79
2023/06/15 14:55:59;;;;;;;5.13;4.53;;;21.50;53.50;;;;;;6271892;28;20298;-81
2023/06/15 14:59:03;;;;;;;3.53;3.43;;;21.60;53.50;;;;;;6272397;28;20237;-80
2023/06/15 15:02:07;;;;;;;5.80;3.60;;;21.60;52.70;;;;;;6276461;28;20241;-79
2023/06/15 15:05:10;;;;;;;3.70;3.40;;;21.50;52.80;;;;;;6279153;28;20275;-80
2023/06/15 15:08:13;;;;;;;3.40;3.27;;;21.50;52.70;;;;;;6261268;28;20781;-80
2023/06/15 15:11:17;;;;;;;4.13;3.70;;;21.50;52.40;;;;;;6260722;28;20252;-81
2023/06/15 15:14:21;;;;;;;3.87;3.67;;;21.70;52.20;;;;;;6260676;28;20707;-82
2023/06/15 15:17:25;;;;;;;3.43;3.33;;;21.90;52.40;;;;;;6270309;28;20713;-80
2023/06/15 15:20:28;;;;;;;4.00;3.70;;;22.10;52.50;;;;;;6269594;28;20237;-82
2023/06/15 15:23:32;;;;;;;4.80;4.23;;;22.30;52.50;;;;;;6263682;28;20238;-81
2023/06/15 15:26:35;;;;;;;3.70;3.50;;;22.50;52.50;;;;;;6264500;28;20914;-82
2023/06/15 15:29:40;;;;;;;4.53;4.13;;;22.80;51.90;;;;;;6269978;28;20632;-83
2023/06/15 15:32:43;;;;;;;6.63;4.37;;;22.90;51.30;;;;;;6275952;28;20426;-79
2023/06/15 15:35:46;;;;;;;4.37;3.97;;;23.00;50.90;;;;;;6264175;28;20321;-81
2023/06/15 15:38:49;;;;;;;4.77;4.30;;;23.00;50.70;;;;;;6263092;28;20234;-80
2023/06/15 15:41:55;;;;;;;4.40;4.20;;;23.10;51.40;;;;;;6269860;28;20853;-80
2023/06/15 15:45:00;;;;;;;4.87;4.37;;;23.00;51.40;;;;;;6271776;28;20251;-81
2023/06/15 15:48:03;;;;;;;5.37;4.70;;;23.00;51.30;;;;;;6271833;28;20237;-80
2023/06/15 15:51:11;;;;;;;4.77;4.50;;;22.90;51.40;;;;;;6271077;28;20234;-79
2023/06/15 15:54:14;;;;;;;4.20;4.00;;;22.70;51.10;;;;;;6267494;28;20234;-82
2023/06/15 15:57:17;;;;;;;4.53;4.10;;;22.50;51.40;;;;;;6274800;28;20230;-81
2023/06/15 16:00:23;;;;;;;4.27;3.93;;;22.50;51.80;;;;;;6259548;28;20741;-79
2023/06/15 16:03:26;;;;;;;4.00;3.90;;;22.50;50.80;;;;;;6286643;28;20720;-81